Time;durP1;ratioP1;P1;durP2;ratioP2;P2;SDS_P1;SDS_P2;PMS_P1;PMS_P2;Temp;Humidity;BMP_temperature;BMP_pressure;BME280_temperature;BME280_humidity;BME280_pressure;Samples;Min_cycle;Max_cycle;Signal;HPM_P1;HPM_P2
2021/09/01 00:02:24;;;;;;;27.35;13.90;;;14.50;99.90;;;;;;4990428;28;20260;-61
2021/09/01 00:04:50;;;;;;;29.42;13.48;;;14.60;99.90;;;;;;4989324;28;20309;-61
2021/09/01 00:07:16;;;;;;;31.10;15.15;;;14.60;99.90;;;;;;4989288;28;20387;-61
2021/09/01 00:09:42;;;;;;;28.67;15.38;;;14.70;99.90;;;;;;4992066;28;20030;-61
2021/09/01 00:12:09;;;;;;;24.45;15.35;;;14.70;99.90;;;;;;5007204;28;20034;-61
2021/09/01 00:14:35;;;;;;;28.77;15.93;;;14.80;99.90;;;;;;4991641;28;20053;-61
2021/09/01 00:17:01;;;;;;;31.65;17.13;;;14.90;99.90;;;;;;4991135;28;20311;-61
2021/09/01 00:19:27;;;;;;;28.52;16.60;;;14.80;99.90;;;;;;4991787;28;20324;-61
2021/09/01 00:21:56;;;;;;;29.27;15.80;;;14.80;99.90;;;;;;4991393;28;20066;-62
2021/09/01 00:24:22;;;;;;;25.27;16.65;;;14.90;99.90;;;;;;4989969;28;20041;-61
2021/09/01 00:26:47;;;;;;;33.85;18.50;;;14.90;99.90;;;;;;4991162;28;20042;-61
2021/09/01 00:29:13;;;;;;;27.73;17.33;;;14.90;99.90;;;;;;4990343;28;20320;-61
2021/09/01 00:31:39;;;;;;;29.58;17.08;;;15.00;99.90;;;;;;4991142;28;20030;-61
2021/09/01 00:34:05;;;;;;;28.30;17.27;;;15.00;99.90;;;;;;4991907;28;20037;-61
2021/09/01 00:36:31;;;;;;;30.85;17.73;;;14.90;99.90;;;;;;4989343;28;20026;-61
2021/09/01 00:38:57;;;;;;;27.98;17.00;;;14.90;99.90;;;;;;4991958;28;20217;-62
2021/09/01 00:41:25;;;;;;;26.65;19.00;;;14.90;99.90;;;;;;4991179;28;20289;-62
2021/09/01 00:43:55;;;;;;;30.00;19.02;;;14.90;99.90;;;;;;4989608;28;20113;-62
2021/09/01 00:46:22;;;;;;;24.15;17.55;;;15.00;99.90;;;;;;4989997;28;20080;-61
2021/09/01 00:48:50;;;;;;;24.90;15.77;;;15.00;99.90;;;;;;4991665;28;20034;-61
2021/09/01 00:51:16;;;;;;;24.08;15.45;;;15.00;99.90;;;;;;5005363;28;20225;-61
2021/09/01 00:53:46;;;;;;;25.58;16.33;;;15.00;99.90;;;;;;4992483;28;20037;-61
2021/09/01 00:56:17;;;;;;;26.05;15.25;;;15.00;99.90;;;;;;4989846;28;20084;-62
2021/09/01 00:58:44;;;;;;;28.60;17.13;;;15.00;99.90;;;;;;4990396;28;20030;-62
2021/09/01 01:01:16;;;;;;;27.23;16.73;;;15.00;99.90;;;;;;4991042;28;20321;-61
2021/09/01 01:03:55;;;;;;;30.92;17.25;;;15.10;99.90;;;;;;4989031;28;20081;-61
2021/09/01 01:06:22;;;;;;;24.48;15.25;;;15.10;99.90;;;;;;4991198;28;20038;-62
2021/09/01 01:08:49;;;;;;;24.23;16.42;;;15.00;99.90;;;;;;4991816;28;20126;-61
2021/09/01 01:11:15;;;;;;;25.90;15.55;;;15.10;99.90;;;;;;4991387;28;20030;-62
2021/09/01 01:13:46;;;;;;;27.73;16.10;;;15.00;99.90;;;;;;4991428;28;20058;-62
2021/09/01 01:16:14;;;;;;;24.67;15.10;;;15.10;99.90;;;;;;4990590;28;20362;-61
2021/09/01 01:18:41;;;;;;;26.70;14.43;;;15.10;99.90;;;;;;4990998;28;20213;-62
2021/09/01 01:21:07;;;;;;;24.33;14.10;;;15.10;99.90;;;;;;4991458;28;20100;-62
2021/09/01 01:23:33;;;;;;;28.15;15.73;;;15.00;99.90;;;;;;4989592;28;20030;-62
2021/09/01 01:25:58;;;;;;;28.88;15.80;;;15.10;99.90;;;;;;4991647;28;20098;-61
2021/09/01 01:28:24;;;;;;;25.80;15.25;;;15.10;99.90;;;;;;4991658;28;20094;-61
2021/09/01 01:30:50;;;;;;;26.70;14.63;;;15.10;99.90;;;;;;4990765;28;20072;-62
2021/09/01 01:33:16;;;;;;;25.50;15.50;;;15.20;99.90;;;;;;4990639;28;20378;-62
2021/09/01 01:35:45;;;;;;;28.42;15.20;;;15.10;99.90;;;;;;4993157;28;20038;-62
2021/09/01 01:38:14;;;;;;;21.27;13.82;;;15.10;99.90;;;;;;4994541;28;20108;-62
2021/09/01 01:40:41;;;;;;;27.77;15.27;;;15.10;99.90;;;;;;4994506;28;20070;-62
2021/09/01 01:43:08;;;;;;;24.60;14.85;;;15.10;99.90;;;;;;4993984;28;20236;-62
2021/09/01 01:45:42;;;;;;;22.50;15.02;;;15.10;99.90;;;;;;4994509;28;20053;-62
2021/09/01 01:48:10;;;;;;;22.70;13.80;;;15.20;99.90;;;;;;4992409;28;20022;-62
2021/09/01 01:50:44;;;;;;;21.23;13.75;;;15.10;99.90;;;;;;4993764;28;20035;-61
2021/09/01 01:53:10;;;;;;;21.30;13.32;;;15.20;99.90;;;;;;4994405;28;20208;-61
2021/09/01 01:55:36;;;;;;;25.13;14.55;;;15.10;99.90;;;;;;4993707;28;20031;-61
2021/09/01 01:58:03;;;;;;;20.30;14.57;;;15.20;99.90;;;;;;4994661;28;20026;-62
2021/09/01 02:00:29;;;;;;;26.85;15.85;;;15.20;99.90;;;;;;4994504;28;20041;-61
2021/09/01 02:02:55;;;;;;;20.80;14.23;;;15.20;99.90;;;;;;4991548;28;20539;-62
2021/09/01 02:05:21;;;;;;;22.63;14.30;;;15.10;99.90;;;;;;4994968;28;20026;-61
2021/09/01 02:07:46;;;;;;;21.00;13.93;;;15.10;99.90;;;;;;4993266;28;20224;-62
2021/09/01 02:10:12;;;;;;;16.48;10.98;;;15.10;99.90;;;;;;4994449;28;20034;-61
2021/09/01 02:12:40;;;;;;;19.42;12.15;;;15.10;99.90;;;;;;4992656;28;20030;-62
2021/09/01 02:15:09;;;;;;;22.25;14.63;;;15.10;99.90;;;;;;4994058;28;20050;-61
2021/09/01 02:17:35;;;;;;;22.92;15.65;;;15.10;99.90;;;;;;4993688;28;20339;-61
2021/09/01 02:20:02;;;;;;;24.70;15.02;;;15.10;99.90;;;;;;4992499;28;20193;-62
2021/09/01 02:22:27;;;;;;;31.98;15.20;;;15.10;99.90;;;;;;4990923;28;20038;-62
2021/09/01 02:24:53;;;;;;;24.63;14.90;;;15.10;99.90;;;;;;4993904;28;20052;-61
2021/09/01 02:27:19;;;;;;;41.13;15.60;;;15.20;99.90;;;;;;4993700;28;20034;-61
2021/09/01 02:29:45;;;;;;;23.15;13.93;;;15.20;99.90;;;;;;4993283;28;20114;-61
2021/09/01 02:32:11;;;;;;;19.80;13.45;;;15.20;99.90;;;;;;4993860;28;20065;-61
2021/09/01 02:34:37;;;;;;;19.13;13.45;;;15.20;99.90;;;;;;4993470;28;20558;-61
2021/09/01 02:37:04;;;;;;;19.77;13.88;;;15.10;99.90;;;;;;4991984;28;20205;-61
2021/09/01 02:39:30;;;;;;;27.25;12.60;;;15.10;99.90;;;;;;4991038;28;20429;-61
2021/09/01 02:41:55;;;;;;;18.55;12.77;;;15.10;99.90;;;;;;4992641;28;20076;-61
2021/09/01 02:44:21;;;;;;;44.45;13.73;;;15.10;99.90;;;;;;4992772;28;20023;-62
2021/09/01 02:46:47;;;;;;;21.23;12.85;;;15.10;99.90;;;;;;4993121;28;20034;-62
2021/09/01 02:49:13;;;;;;;19.05;11.82;;;15.00;99.90;;;;;;4992357;28;20292;-62
2021/09/01 02:51:39;;;;;;;20.52;13.10;;;15.00;99.90;;;;;;4993941;28;20253;-62
2021/09/01 02:54:05;;;;;;;19.50;12.90;;;15.10;99.90;;;;;;4991917;28;20034;-62
2021/09/01 02:56:31;;;;;;;18.17;11.48;;;15.20;99.90;;;;;;4994243;28;20052;-62
2021/09/01 02:58:57;;;;;;;23.33;12.75;;;15.10;99.90;;;;;;4992088;28;20026;-62
2021/09/01 03:01:23;;;;;;;21.08;13.63;;;15.10;99.90;;;;;;4993054;28;20368;-62
2021/09/01 03:03:49;;;;;;;20.70;13.77;;;15.00;99.90;;;;;;4990035;28;20030;-62
2021/09/01 03:06:15;;;;;;;31.73;13.77;;;15.00;99.90;;;;;;4992270;28;20337;-62
2021/09/01 03:08:41;;;;;;;56.25;14.23;;;15.10;99.90;;;;;;4992081;28;20030;-62
2021/09/01 03:11:07;;;;;;;19.98;13.25;;;15.10;99.90;;;;;;4992548;28;20104;-62
2021/09/01 03:13:33;;;;;;;30.70;13.55;;;15.00;99.90;;;;;;4991683;28;20389;-62
2021/09/01 03:15:59;;;;;;;31.83;13.60;;;15.00;99.90;;;;;;4992894;28;20061;-62
2021/09/01 03:18:25;;;;;;;25.63;12.85;;;15.00;99.90;;;;;;4990698;28;20038;-62
2021/09/01 03:20:51;;;;;;;16.75;12.25;;;15.00;99.90;;;;;;4992301;28;20061;-62
2021/09/01 03:23:17;;;;;;;28.67;11.93;;;15.00;99.90;;;;;;4992304;28;20357;-62
2021/09/01 03:25:43;;;;;;;33.60;12.60;;;15.10;99.90;;;;;;4990962;28;20578;-62
2021/09/01 03:28:09;;;;;;;29.88;13.32;;;15.00;99.90;;;;;;4990509;28;20438;-63
2021/09/01 03:30:35;;;;;;;27.40;14.15;;;15.00;99.90;;;;;;4991430;28;20044;-62
2021/09/01 03:33:01;;;;;;;18.63;13.20;;;15.00;99.90;;;;;;4990988;28;20032;-61
2021/09/01 03:35:27;;;;;;;22.15;13.15;;;15.00;99.90;;;;;;4991004;28;20629;-61
2021/09/01 03:37:54;;;;;;;36.92;13.60;;;15.00;99.90;;;;;;4990628;28;20293;-62
2021/09/01 03:40:20;;;;;;;17.60;12.13;;;14.90;99.90;;;;;;4990152;28;20056;-62
2021/09/01 03:42:45;;;;;;;16.08;11.98;;;14.80;99.90;;;;;;4991869;28;20300;-62
2021/09/01 03:45:12;;;;;;;16.38;11.98;;;14.90;99.90;;;;;;4990012;28;20031;-62
2021/09/01 03:47:38;;;;;;;22.88;12.93;;;14.90;99.90;;;;;;4991337;28;20026;-61
2021/09/01 03:50:07;;;;;;;19.48;13.05;;;14.90;99.90;;;;;;4991235;28;20037;-62
2021/09/01 03:52:33;;;;;;;23.10;14.20;;;14.90;99.90;;;;;;4990322;28;20376;-62
2021/09/01 03:55:01;;;;;;;26.40;13.95;;;14.90;99.90;;;;;;4989275;28;20299;-62
2021/09/01 03:57:27;;;;;;;27.55;14.20;;;14.90;99.90;;;;;;4987872;28;20609;-62
2021/09/01 03:59:53;;;;;;;24.25;15.20;;;14.90;99.90;;;;;;4988421;28;20034;-62
2021/09/01 04:02:19;;;;;;;28.33;13.27;;;14.90;99.90;;;;;;4988275;28;20122;-62
2021/09/01 04:04:44;;;;;;;32.33;14.25;;;15.00;99.90;;;;;;4987351;28;20325;-62
2021/09/01 04:07:10;;;;;;;60.70;16.20;;;14.90;99.90;;;;;;4984288;28;20026;-64
2021/09/01 04:09:36;;;;;;;20.73;13.85;;;14.90;99.90;;;;;;4990678;28;20038;-70
2021/09/01 04:12:02;;;;;;;28.55;14.60;;;14.80;99.90;;;;;;4991172;28;20089;-71
2021/09/01 04:14:28;;;;;;;32.97;15.13;;;14.80;99.90;;;;;;4989953;28;20050;-71
2021/09/01 04:16:54;;;;;;;17.35;12.23;;;14.70;99.90;;;;;;4988132;28;20034;-67
2021/09/01 04:19:20;;;;;;;21.98;13.55;;;14.70;99.90;;;;;;4990168;28;20049;-67
2021/09/01 04:21:46;;;;;;;20.13;12.50;;;14.80;99.90;;;;;;4988176;28;20117;-67
2021/09/01 04:24:12;;;;;;;19.25;11.65;;;14.80;99.90;;;;;;4991141;28;20027;-67
2021/09/01 04:26:37;;;;;;;15.93;11.55;;;14.90;99.90;;;;;;4990530;28;20065;-67
2021/09/01 04:29:03;;;;;;;16.25;11.73;;;14.80;99.90;;;;;;4989897;28;20030;-67
2021/09/01 04:31:29;;;;;;;18.83;10.55;;;14.80;99.90;;;;;;4991076;28;20030;-67
2021/09/01 04:33:55;;;;;;;17.65;10.02;;;14.70;99.90;;;;;;4992141;28;20060;-67
2021/09/01 04:36:21;;;;;;;18.08;9.80;;;14.80;99.90;;;;;;4990840;28;20362;-67
2021/09/01 04:38:46;;;;;;;18.05;9.30;;;14.80;99.90;;;;;;4991939;28;20080;-67
2021/09/01 04:41:12;;;;;;;13.05;8.90;;;14.70;99.90;;;;;;4992647;28;20038;-67
2021/09/01 04:43:38;;;;;;;23.98;9.07;;;14.70;99.90;;;;;;4990817;28;20280;-67
2021/09/01 04:46:04;;;;;;;11.65;7.38;;;14.60;99.90;;;;;;4991552;28;20033;-68
2021/09/01 04:48:30;;;;;;;12.20;7.63;;;14.60;99.90;;;;;;4990712;28;20022;-67
2021/09/01 04:50:56;;;;;;;24.48;7.25;;;14.60;99.90;;;;;;4985608;28;20066;-67
2021/09/01 04:53:22;;;;;;;25.55;8.80;;;14.60;99.90;;;;;;4985745;28;20127;-67
2021/09/01 04:55:47;;;;;;;13.80;7.55;;;14.50;99.90;;;;;;4989417;28;20030;-68
2021/09/01 04:58:14;;;;;;;12.13;7.05;;;14.50;99.90;;;;;;4989111;28;20061;-68
2021/09/01 05:00:40;;;;;;;21.45;10.55;;;14.50;99.90;;;;;;4988817;28;20022;-67
2021/09/01 05:03:06;;;;;;;46.08;11.82;;;14.50;99.90;;;;;;4990958;28;20037;-68
2021/09/01 05:05:32;;;;;;;27.13;9.70;;;14.50;99.90;;;;;;4989377;28;20035;-68
2021/09/01 05:07:58;;;;;;;25.10;9.70;;;14.50;99.90;;;;;;4991587;28;20469;-69
2021/09/01 05:10:24;;;;;;;17.42;9.90;;;14.50;99.90;;;;;;4993196;28;20049;-69
2021/09/01 05:12:50;;;;;;;18.50;9.38;;;14.40;99.90;;;;;;4994963;28;20264;-69
2021/09/01 05:15:19;;;;;;;14.32;9.85;;;14.40;99.90;;;;;;4994243;28;20112;-69
2021/09/01 05:17:45;;;;;;;19.20;9.95;;;14.50;99.90;;;;;;5003776;28;20026;-69
2021/09/01 05:20:11;;;;;;;19.48;10.73;;;14.50;99.90;;;;;;4993852;28;20258;-69
2021/09/01 05:22:38;;;;;;;20.80;11.80;;;14.60;99.90;;;;;;4995238;28;20041;-69
2021/09/01 05:25:13;;;;;;;16.85;11.10;;;14.60;99.90;;;;;;4994420;28;20313;-69
2021/09/01 05:27:44;;;;;;;16.88;11.43;;;14.60;99.90;;;;;;4995007;28;20029;-69
2021/09/01 05:30:12;;;;;;;20.77;10.05;;;14.60;99.90;;;;;;4996186;28;20029;-69
2021/09/01 05:32:39;;;;;;;22.10;11.23;;;14.70;99.90;;;;;;4995026;28;20034;-69
2021/09/01 05:35:07;;;;;;;27.95;12.27;;;14.80;99.90;;;;;;4994502;28;20042;-69
2021/09/01 05:37:33;;;;;;;26.55;12.15;;;14.70;99.90;;;;;;4995454;28;20278;-69
2021/09/01 05:40:01;;;;;;;28.83;12.13;;;14.80;99.90;;;;;;4995314;28;20332;-69
2021/09/01 05:42:28;;;;;;;26.27;11.73;;;14.80;99.90;;;;;;4995603;28;20042;-69
2021/09/01 05:44:56;;;;;;;37.10;14.73;;;14.90;99.90;;;;;;5009227;28;20097;-69
2021/09/01 05:47:23;;;;;;;12.82;9.52;;;14.90;99.90;;;;;;4995404;28;20189;-69
2021/09/01 05:49:50;;;;;;;15.32;10.43;;;15.00;99.90;;;;;;4995440;28;20086;-69
2021/09/01 05:52:18;;;;;;;17.98;11.20;;;15.10;99.90;;;;;;4995394;28;20255;-69
2021/09/01 05:54:47;;;;;;;38.22;13.68;;;15.10;99.90;;;;;;4995306;28;20098;-70
2021/09/01 05:57:17;;;;;;;30.98;13.60;;;15.20;99.90;;;;;;4995352;28;20038;-69
2021/09/01 05:59:43;;;;;;;34.63;13.35;;;15.20;99.90;;;;;;4994868;28;20128;-69
2021/09/01 06:02:20;;;;;;;23.52;14.43;;;15.20;99.90;;;;;;4991831;28;20332;-69
2021/09/01 06:04:47;;;;;;;36.50;14.35;;;15.20;99.90;;;;;;4994229;28;20038;-69
2021/09/01 06:07:16;;;;;;;27.60;14.32;;;15.30;99.90;;;;;;4994767;28;20053;-70
2021/09/01 06:09:44;;;;;;;22.30;13.07;;;15.30;99.90;;;;;;4994334;28;20024;-69
2021/09/01 06:12:14;;;;;;;17.48;11.80;;;15.40;99.90;;;;;;4993868;28;20355;-69
2021/09/01 06:14:39;;;;;;;27.05;14.90;;;15.50;99.90;;;;;;4995356;28;20058;-70
2021/09/01 06:17:05;;;;;;;32.70;14.55;;;15.50;99.90;;;;;;4993228;28;20070;-69
2021/09/01 06:19:31;;;;;;;19.38;13.43;;;15.50;99.90;;;;;;4994179;28;20034;-69
2021/09/01 06:21:58;;;;;;;39.05;14.93;;;15.60;99.90;;;;;;4993802;28;20038;-69
2021/09/01 06:24:24;;;;;;;24.40;15.60;;;15.70;99.90;;;;;;4994690;28;20085;-69
2021/09/01 06:26:50;;;;;;;22.38;13.55;;;15.70;99.90;;;;;;4994989;28;20060;-69
2021/09/01 06:29:16;;;;;;;27.33;15.48;;;15.70;99.90;;;;;;4994797;28;20023;-69
2021/09/01 06:31:42;;;;;;;25.17;14.77;;;15.80;99.90;;;;;;4994596;28;20050;-69
2021/09/01 06:34:08;;;;;;;35.58;14.75;;;15.80;99.90;;;;;;4994409;28;20356;-70
2021/09/01 06:36:33;;;;;;;28.25;13.63;;;15.90;99.90;;;;;;4994728;28;20069;-69
2021/09/01 06:38:59;;;;;;;27.77;14.32;;;15.90;99.90;;;;;;4994454;28;20022;-69
2021/09/01 06:41:25;;;;;;;32.25;16.02;;;15.90;99.90;;;;;;4994596;28;20105;-69
2021/09/01 06:43:51;;;;;;;28.05;15.70;;;15.90;99.90;;;;;;4994520;28;20045;-69
2021/09/01 06:46:16;;;;;;;18.75;13.00;;;15.90;99.90;;;;;;4994437;28;20053;-70
2021/09/01 06:48:42;;;;;;;32.65;16.52;;;16.00;99.90;;;;;;4993911;28;20383;-69
2021/09/01 06:51:08;;;;;;;31.60;15.80;;;16.00;99.90;;;;;;4994506;28;20268;-69
2021/09/01 06:53:34;;;;;;;23.33;14.43;;;16.10;99.90;;;;;;4993534;28;20077;-69
2021/09/01 06:56:00;;;;;;;29.58;16.15;;;16.10;99.90;;;;;;4993632;28;20034;-69
2021/09/01 06:58:26;;;;;;;20.02;15.10;;;16.10;99.90;;;;;;4994411;28;20030;-69
2021/09/01 07:00:52;;;;;;;24.33;15.48;;;16.10;99.90;;;;;;4994198;28;20116;-69
2021/09/01 07:03:17;;;;;;;25.33;16.77;;;16.10;99.90;;;;;;4993264;28;20037;-69
2021/09/01 07:05:43;;;;;;;24.20;16.33;;;16.20;99.90;;;;;;4990842;28;20036;-69
2021/09/01 07:08:17;;;;;;;21.33;15.27;;;16.20;99.90;;;;;;5007797;28;20511;-69
2021/09/01 07:10:44;;;;;;;21.83;15.10;;;16.30;99.90;;;;;;4993483;28;20220;-69
2021/09/01 07:13:13;;;;;;;19.60;14.40;;;16.40;99.90;;;;;;5008803;28;20089;-69
2021/09/01 07:15:40;;;;;;;26.35;16.02;;;16.40;99.90;;;;;;4993234;28;20050;-69
2021/09/01 07:18:06;;;;;;;24.15;17.50;;;16.50;99.90;;;;;;4993054;28;20037;-69
2021/09/01 07:20:32;;;;;;;23.55;17.20;;;16.50;99.90;;;;;;4992974;28;20217;-69
2021/09/01 07:22:58;;;;;;;25.23;17.17;;;16.50;99.90;;;;;;4993599;28;20033;-69
2021/09/01 07:25:24;;;;;;;28.45;16.92;;;16.40;99.90;;;;;;4993899;28;20219;-70
2021/09/01 07:27:50;;;;;;;22.80;15.95;;;16.50;99.90;;;;;;4993409;28;20026;-69
2021/09/01 07:30:16;;;;;;;27.42;18.40;;;16.50;99.90;;;;;;4993725;28;20026;-69
2021/09/01 07:32:42;;;;;;;26.05;18.45;;;16.60;99.90;;;;;;4993077;28;20026;-70
2021/09/01 07:35:08;;;;;;;27.20;17.33;;;16.70;99.90;;;;;;4992834;28;20057;-69
2021/09/01 07:37:42;;;;;;;27.02;19.10;;;16.80;99.90;;;;;;4992076;28;20125;-70
2021/09/01 07:40:08;;;;;;;22.73;15.52;;;16.80;99.90;;;;;;4993355;28;20093;-69
2021/09/01 07:42:34;;;;;;;26.02;16.20;;;16.70;99.90;;;;;;4991296;28;20041;-69
2021/09/01 07:45:00;;;;;;;30.35;18.08;;;16.80;99.90;;;;;;4993175;28;21959;-69
2021/09/01 07:47:26;;;;;;;26.77;17.27;;;16.80;99.90;;;;;;4975120;28;20105;-69
2021/09/01 07:49:52;;;;;;;32.83;17.35;;;16.80;99.90;;;;;;4992647;28;20026;-69
2021/09/01 07:52:17;;;;;;;26.52;16.92;;;16.80;99.90;;;;;;4993543;28;20030;-69
2021/09/01 07:54:43;;;;;;;29.33;16.13;;;16.80;99.90;;;;;;4993366;28;20022;-69
2021/09/01 07:57:09;;;;;;;27.25;15.13;;;17.00;99.90;;;;;;4992287;28;20057;-69
2021/09/01 07:59:35;;;;;;;21.92;13.35;;;17.10;99.90;;;;;;4992058;28;20033;-69
2021/09/01 08:02:01;;;;;;;22.65;12.68;;;17.10;99.90;;;;;;4992953;28;20041;-69
2021/09/01 08:04:27;;;;;;;23.65;12.70;;;17.10;99.90;;;;;;4993202;28;20244;-69
2021/09/01 08:06:53;;;;;;;23.35;12.00;;;17.20;99.90;;;;;;4992812;28;20130;-69
2021/09/01 08:09:20;;;;;;;27.08;13.50;;;17.20;99.90;;;;;;4991485;28;20062;-69
2021/09/01 08:11:46;;;;;;;23.08;13.05;;;17.30;99.90;;;;;;4992993;28;20034;-69
2021/09/01 08:14:12;;;;;;;20.45;11.88;;;17.30;99.90;;;;;;4991705;28;20022;-70
2021/09/01 08:16:38;;;;;;;20.00;12.82;;;17.40;99.90;;;;;;4992605;28;20077;-69
2021/09/01 08:19:04;;;;;;;24.67;13.05;;;17.40;99.90;;;;;;4992728;28;20026;-70
2021/09/01 08:21:30;;;;;;;21.05;12.40;;;17.40;99.90;;;;;;4991651;28;20101;-69
2021/09/01 08:23:56;;;;;;;24.83;12.27;;;17.20;99.90;;;;;;4992880;28;20018;-69
2021/09/01 08:26:22;;;;;;;21.92;13.30;;;17.20;99.90;;;;;;4992900;28;20033;-69
2021/09/01 08:28:50;;;;;;;20.98;12.30;;;17.30;99.90;;;;;;4992729;28;20331;-69
2021/09/01 08:31:15;;;;;;;21.13;11.40;;;17.30;99.90;;;;;;4991689;28;20032;-69
2021/09/01 08:33:42;;;;;;;17.73;11.25;;;17.40;99.90;;;;;;4992585;28;20050;-70
2021/09/01 08:36:09;;;;;;;22.35;10.65;;;17.50;99.90;;;;;;4992439;28;20034;-69
2021/09/01 08:38:35;;;;;;;18.40;11.13;;;17.70;99.90;;;;;;4991256;28;20034;-69
2021/09/01 08:41:04;;;;;;;20.17;11.18;;;17.90;99.90;;;;;;4990962;28;20293;-69
2021/09/01 08:43:31;;;;;;;25.75;10.68;;;18.00;99.90;;;;;;4998916;28;20220;-70
2021/09/01 08:46:01;;;;;;;24.23;11.27;;;18.20;99.90;;;;;;4994445;28;20042;-70
2021/09/01 08:48:27;;;;;;;19.17;11.05;;;18.40;99.90;;;;;;4996962;28;20211;-70
2021/09/01 08:50:54;;;;;;;19.50;11.38;;;18.40;99.90;;;;;;4996387;28;20097;-69
2021/09/01 08:53:20;;;;;;;23.08;11.35;;;18.40;99.90;;;;;;4995654;28;20022;-70
2021/09/01 08:55:49;;;;;;;17.70;9.48;;;18.40;99.90;;;;;;4996369;28;20097;-70
2021/09/01 08:58:17;;;;;;;20.77;9.80;;;18.50;99.90;;;;;;4995929;28;20209;-69
2021/09/01 09:00:44;;;;;;;17.25;8.85;;;18.50;99.90;;;;;;4996473;28;20331;-69
2021/09/01 09:03:09;;;;;;;23.10;9.98;;;18.50;99.90;;;;;;4996169;28;20023;-70
2021/09/01 09:05:38;;;;;;;28.08;10.63;;;18.50;99.90;;;;;;4995488;28;20104;-70
2021/09/01 09:08:07;;;;;;;17.55;9.45;;;18.80;99.90;;;;;;5010226;28;20244;-69
2021/09/01 09:10:37;;;;;;;24.47;9.87;;;18.90;99.90;;;;;;4996042;28;20371;-70
2021/09/01 09:13:11;;;;;;;19.98;7.63;;;18.90;99.90;;;;;;4995336;28;20468;-70
2021/09/01 09:15:39;;;;;;;16.30;8.27;;;19.00;99.90;;;;;;4996169;28;20058;-69
2021/09/01 09:18:28;;;;;;;18.52;8.27;;;19.40;99.90;;;;;;4995869;28;20065;-69
2021/09/01 09:21:18;;;;;;;18.85;7.72;;;20.30;99.90;;;;;;4995754;28;20507;-70
2021/09/01 09:23:46;;;;;;;18.40;6.90;;;21.00;99.90;;;;;;4995827;28;20109;-70
2021/09/01 09:26:23;;;;;;;20.60;7.10;;;21.30;99.90;;;;;;4995404;28;20022;-70
2021/09/01 09:29:12;;;;;;;18.80;7.22;;;21.70;99.90;;;;;;4995585;28;20034;-70
2021/09/01 09:31:41;;;;;;;17.08;6.65;;;22.40;99.90;;;;;;4995654;28;20272;-70
2021/09/01 09:34:11;;;;;;;17.17;6.03;;;23.00;99.90;;;;;;4995740;28;20030;-70
2021/09/01 09:36:38;;;;;;;15.35;5.35;;;23.40;99.90;;;;;;4995584;28;20053;-70
2021/09/01 09:39:06;;;;;;;12.35;6.25;;;23.80;99.90;;;;;;4995679;28;20030;-70
2021/09/01 09:41:32;;;;;;;15.48;5.57;;;23.80;99.90;;;;;;4994955;28;20038;-70
2021/09/01 09:44:04;;;;;;;15.35;5.57;;;23.80;99.90;;;;;;4995105;28;20056;-70
2021/09/01 09:46:30;;;;;;;14.60;5.60;;;24.30;99.90;;;;;;4995523;28;20030;-70
2021/09/01 09:49:07;;;;;;;12.35;5.25;;;24.70;99.90;;;;;;4995204;28;20034;-70
2021/09/01 09:51:39;;;;;;;13.98;5.30;;;25.20;99.90;;;;;;4994117;28;20022;-70
2021/09/01 09:54:15;;;;;;;10.90;5.13;;;25.80;99.90;;;;;;4994451;28;20085;-70
2021/09/01 09:56:42;;;;;;;12.38;5.35;;;26.20;99.90;;;;;;4995112;28;20033;-70
2021/09/01 09:59:13;;;;;;;15.68;5.10;;;26.10;99.90;;;;;;4994527;28;20301;-71
2021/09/01 10:01:39;;;;;;;16.23;5.45;;;26.30;99.90;;;;;;4993857;28;20056;-70
2021/09/01 10:04:05;;;;;;;16.17;5.43;;;26.10;99.90;;;;;;4995008;28;20022;-70
2021/09/01 10:06:31;;;;;;;17.40;5.35;;;26.00;99.90;;;;;;4994441;28;20057;-71
2021/09/01 10:09:00;;;;;;;14.25;4.85;;;26.00;99.90;;;;;;4995015;28;20043;-71
2021/09/01 10:11:26;;;;;;;15.05;4.90;;;26.10;99.90;;;;;;4993915;28;20137;-70
2021/09/01 10:13:54;;;;;;;16.40;5.45;;;26.00;99.90;;;;;;4995320;28;20368;-71
2021/09/01 10:16:20;;;;;;;13.35;4.75;;;26.30;99.90;;;;;;4993704;28;20321;-71
2021/09/01 10:18:50;;;;;;;15.73;5.40;;;26.50;99.90;;;;;;4994197;28;20042;-71
2021/09/01 10:21:17;;;;;;;15.55;5.15;;;26.40;99.90;;;;;;4994451;28;20077;-71
2021/09/01 10:23:45;;;;;;;13.48;5.00;;;26.30;99.90;;;;;;4994915;28;20030;-70
2021/09/01 10:26:32;;;;;;;14.63;4.93;;;26.30;99.90;;;;;;4994259;28;20157;-70
2021/09/01 10:29:00;;;;;;;15.45;5.65;;;26.40;99.90;;;;;;4993627;28;20161;-70
2021/09/01 10:31:33;;;;;;;15.57;5.18;;;26.60;99.90;;;;;;4993901;28;20030;-70
2021/09/01 10:34:18;;;;;;;16.85;5.25;;;26.80;99.90;;;;;;4994162;28;20027;-70
2021/09/01 10:36:52;;;;;;;13.48;5.30;;;26.90;99.90;;;;;;4995018;28;20018;-70
2021/09/01 10:39:30;;;;;;;15.05;4.90;;;26.30;99.90;;;;;;4994884;28;20018;-71
2021/09/01 10:41:57;;;;;;;11.93;4.82;;;26.50;99.90;;;;;;4994752;28;20061;-70
2021/09/01 10:44:26;;;;;;;13.73;5.07;;;26.70;99.90;;;;;;4993955;28;20057;-71
2021/09/01 10:46:52;;;;;;;19.80;6.00;;;26.80;99.90;;;;;;4994516;28;20054;-70
2021/09/01 10:49:25;;;;;;;10.88;4.75;;;27.20;99.90;;;;;;4994684;28;20084;-71
2021/09/01 10:51:56;;;;;;;18.23;5.43;;;27.10;99.90;;;;;;4994201;28;20122;-71
2021/09/01 10:54:32;;;;;;;14.13;5.07;;;26.90;99.90;;;;;;4994161;28;20250;-71
2021/09/01 10:57:05;;;;;;;13.43;5.15;;;27.10;99.90;;;;;;4994238;28;20026;-71
2021/09/01 10:59:37;;;;;;;13.13;4.82;;;26.80;99.90;;;;;;4993667;28;20415;-71
2021/09/01 11:02:17;;;;;;;16.55;5.65;;;26.90;99.90;;;;;;4993756;28;20034;-70
2021/09/01 11:04:51;;;;;;;15.35;4.97;;;26.90;99.90;;;;;;4993314;28;20101;-71
2021/09/01 11:07:31;;;;;;;20.55;5.55;;;27.10;99.90;;;;;;4991717;28;20034;-71
2021/09/01 11:10:01;;;;;;;16.75;4.85;;;27.00;99.90;;;;;;4993913;28;20034;-71
2021/09/01 11:12:29;;;;;;;15.10;5.13;;;27.10;99.90;;;;;;4993825;28;20026;-70
2021/09/01 11:14:56;;;;;;;12.70;5.15;;;26.80;99.90;;;;;;4993332;28;20085;-71
2021/09/01 11:17:31;;;;;;;15.98;5.25;;;26.90;99.90;;;;;;4993917;28;20355;-70
2021/09/01 11:20:00;;;;;;;17.48;5.28;;;27.30;99.90;;;;;;4993022;28;20113;-70
2021/09/01 11:22:29;;;;;;;14.35;5.30;;;27.40;99.90;;;;;;4992912;28;20030;-70
2021/09/01 11:25:03;;;;;;;18.13;5.18;;;27.30;99.90;;;;;;4994065;28;20037;-71
2021/09/01 11:27:30;;;;;;;21.45;6.50;;;27.20;99.90;;;;;;4993440;28;20289;-70
2021/09/01 11:30:16;;;;;;;17.67;4.78;;;27.30;99.90;;;;;;4992983;28;20038;-71
2021/09/01 11:32:43;;;;;;;13.10;5.55;;;27.20;99.90;;;;;;4993627;28;20026;-70
2021/09/01 11:35:24;;;;;;;15.98;4.35;;;27.20;99.90;;;;;;4993704;28;20038;-70
2021/09/01 11:37:58;;;;;;;14.55;5.47;;;27.10;99.90;;;;;;4992502;28;20030;-70
2021/09/01 11:40:33;;;;;;;14.45;4.80;;;27.30;99.90;;;;;;4992912;28;20286;-71
2021/09/01 11:42:59;;;;;;;13.18;4.60;;;27.50;99.90;;;;;;4993568;28;20046;-70
2021/09/01 11:45:26;;;;;;;10.82;4.55;;;27.60;99.90;;;;;;4999673;28;20028;-70
2021/09/01 11:47:57;;;;;;;13.82;4.82;;;27.60;99.60;;;;;;4993127;28;20228;-71
2021/09/01 11:50:23;;;;;;;14.65;4.95;;;27.60;99.20;;;;;;4993711;28;20042;-71
2021/09/01 11:52:54;;;;;;;13.48;4.82;;;27.30;99.90;;;;;;4993127;28;20355;-71
2021/09/01 11:55:25;;;;;;;16.67;5.43;;;27.10;99.70;;;;;;4992898;28;20221;-71
2021/09/01 11:57:52;;;;;;;18.48;5.40;;;27.10;99.90;;;;;;4993521;28;20109;-70
2021/09/01 12:00:18;;;;;;;14.38;4.55;;;27.10;99.90;;;;;;4992517;28;20022;-71
2021/09/01 12:02:48;;;;;;;14.13;4.55;;;27.20;99.90;;;;;;4992943;28;20341;-71
2021/09/01 12:05:28;;;;;;;12.93;4.72;;;27.50;99.80;;;;;;4992565;28;20022;-70
2021/09/01 12:07:54;;;;;;;12.48;4.90;;;27.30;99.90;;;;;;4992734;28;20328;-70
2021/09/01 12:10:20;;;;;;;17.75;6.03;;;27.20;99.90;;;;;;4993072;28;20034;-71
2021/09/01 12:12:46;;;;;;;17.85;5.15;;;27.40;99.90;;;;;;4992899;28;20106;-71
2021/09/01 12:15:13;;;;;;;16.55;5.05;;;27.10;99.90;;;;;;4992840;28;20058;-70
2021/09/01 12:17:58;;;;;;;16.25;4.70;;;26.60;99.90;;;;;;4993321;28;20123;-71
2021/09/01 12:20:25;;;;;;;14.98;4.70;;;26.80;99.90;;;;;;4993037;28;20347;-71
2021/09/01 12:22:51;;;;;;;14.45;4.50;;;26.80;99.90;;;;;;4992213;28;20392;-71
2021/09/01 12:25:21;;;;;;;13.48;5.20;;;26.80;99.80;;;;;;4991485;28;20018;-70
2021/09/01 12:28:03;;;;;;;13.70;5.40;;;26.50;99.90;;;;;;4992711;28;20352;-70
2021/09/01 12:30:32;;;;;;;11.98;4.57;;;26.50;99.90;;;;;;4992641;28;20023;-70
2021/09/01 12:33:00;;;;;;;13.48;5.45;;;26.70;99.90;;;;;;4992695;28;20029;-71
2021/09/01 12:35:33;;;;;;;17.17;5.22;;;26.80;99.90;;;;;;4992035;28;20096;-70